createdAt,value
2023-03-05T00:01:23.816Z,98150.16
2023-03-05T00:03:53.253Z,98145.96
2023-03-05T00:06:22.696Z,98141.59
2023-03-05T00:08:50.556Z,98143.80
2023-03-05T00:11:18.127Z,98145.80
2023-03-05T00:13:46.283Z,98148.32
2023-03-05T00:16:15.494Z,98148.33
2023-03-05T00:18:43.671Z,98147.66
2023-03-05T00:21:21.554Z,98144.14
2023-03-05T00:23:49.567Z,98140.63
2023-03-05T00:26:22.642Z,98140.30
2023-03-05T00:28:50.310Z,98137.30
2023-03-05T00:31:23.170Z,98135.15
2023-03-05T00:33:52.919Z,98133.32
2023-03-05T00:36:20.778Z,98131.16
2023-03-05T00:38:48.353Z,98130.70
2023-03-05T00:41:15.927Z,98126.68
2023-03-05T00:43:43.768Z,98124.52
2023-03-05T00:46:11.410Z,98121.19
2023-03-05T00:48:39.026Z,98114.49
2023-03-05T00:51:06.702Z,98109.65
2023-03-05T00:53:34.281Z,98108.69
2023-03-05T00:56:01.848Z,98104.52
2023-03-05T00:58:29.390Z,98102.35
2023-03-05T01:01:00.913Z,98103.89
2023-03-05T01:03:30.063Z,98102.39
2023-03-05T01:05:57.661Z,98103.75
2023-03-05T01:08:26.074Z,98101.92
2023-03-05T01:10:53.669Z,98100.42
2023-03-05T01:13:21.304Z,98099.77
2023-03-05T01:15:49.407Z,98102.64
2023-03-05T01:18:18.033Z,98097.27
2023-03-05T01:20:45.909Z,98100.64
2023-03-05T01:23:13.729Z,98097.95
2023-03-05T01:25:41.844Z,98096.11
2023-03-05T01:28:09.840Z,98092.44
2023-03-05T01:30:37.606Z,98087.59
2023-03-05T01:33:05.159Z,98089.77
2023-03-05T01:35:32.970Z,98088.63
2023-03-05T01:38:00.645Z,98089.48
2023-03-05T01:40:31.162Z,98087.31
2023-03-05T01:43:13.869Z,98091.17
2023-03-05T01:46:23.602Z,98089.50
2023-03-05T01:48:56.366Z,98091.54
2023-03-05T01:51:26.859Z,98088.02
2023-03-05T01:53:56.021Z,98083.34
2023-03-05T01:56:24.558Z,98082.00
2023-03-05T01:58:53.345Z,98078.16
2023-03-05T02:01:21.083Z,98078.16
2023-03-05T02:03:48.956Z,98074.31
2023-03-05T02:06:17.107Z,98071.96
2023-03-05T02:08:44.642Z,98073.13
2023-03-05T02:11:12.205Z,98070.95
2023-03-05T02:13:39.808Z,98068.11
2023-03-05T02:16:07.857Z,98064.44
2023-03-05T02:18:35.464Z,98069.30
2023-03-05T02:21:04.373Z,98063.09
2023-03-05T02:23:34.344Z,98059.91
2023-03-05T02:26:06.880Z,98058.40
2023-03-05T02:28:55.807Z,98058.91
2023-03-05T02:31:25.192Z,98054.38
2023-03-05T02:33:53.537Z,98055.21
2023-03-05T02:36:21.181Z,98047.16
2023-03-05T02:38:48.853Z,98050.02
2023-03-05T02:41:16.633Z,98046.65
2023-03-05T02:43:44.243Z,98042.45
2023-03-05T02:46:11.999Z,98048.50
2023-03-05T02:48:39.647Z,98045.52
2023-03-05T02:51:08.148Z,98047.20
2023-03-05T02:53:35.780Z,98047.56
2023-03-05T02:56:03.575Z,98042.38
2023-03-05T02:58:31.276Z,98039.54
2023-03-05T03:00:58.905Z,98040.70
2023-03-05T03:03:26.673Z,98045.23
2023-03-05T03:05:54.224Z,98052.64
2023-03-05T03:08:21.748Z,98054.35
2023-03-05T03:10:49.352Z,98048.30
2023-03-05T03:13:17.088Z,98045.78
2023-03-05T03:15:44.683Z,98043.61
2023-03-05T03:18:12.205Z,98041.59
2023-03-05T03:20:39.788Z,98039.73
2023-03-05T03:23:07.453Z,98032.50
2023-03-05T03:25:35.009Z,98034.52
2023-03-05T03:28:02.563Z,98028.49
2023-03-05T03:30:30.215Z,98024.64
2023-03-05T03:32:57.808Z,98023.95
2023-03-05T03:35:25.414Z,98027.85
2023-03-05T03:37:53.043Z,98026.69
2023-03-05T03:40:20.685Z,98031.39
2023-03-05T03:42:48.255Z,98029.89
2023-03-05T03:45:15.878Z,98021.84
2023-03-05T03:47:43.429Z,98030.74
2023-03-05T03:50:11.904Z,98024.86
2023-03-05T03:52:39.426Z,98028.23
2023-03-05T03:55:07.359Z,98022.35
2023-03-05T03:57:34.928Z,98019.00
2023-03-05T04:00:04.001Z,98021.02
2023-03-05T04:02:31.722Z,98016.81
2023-03-05T04:04:59.368Z,98018.48
2023-03-05T04:07:26.991Z,98019.67
2023-03-05T04:09:54.719Z,98017.98
2023-03-05T04:12:22.462Z,98011.78
2023-03-05T04:14:50.187Z,98010.79
2023-03-05T04:17:17.724Z,98011.79
2023-03-05T04:19:45.567Z,98004.91
2023-03-05T04:22:15.779Z,98008.43
2023-03-05T04:24:43.987Z,97996.52
2023-03-05T04:27:11.785Z,97995.70
2023-03-05T04:29:39.314Z,97996.02
2023-03-05T04:32:07.630Z,97991.34
2023-03-05T04:34:37.640Z,97988.14
2023-03-05T04:37:05.267Z,97984.45
2023-03-05T04:39:32.976Z,97979.44
2023-03-05T04:42:00.549Z,97979.43
2023-03-05T04:44:28.134Z,97978.45
2023-03-05T04:46:55.694Z,97974.94
2023-03-05T04:49:23.273Z,97970.07
2023-03-05T04:51:50.780Z,97967.06
2023-03-05T04:54:18.369Z,97963.73
2023-03-05T04:56:45.926Z,97958.21
2023-03-05T04:59:13.572Z,97955.19
2023-03-05T05:01:41.303Z,97959.38
2023-03-05T05:04:08.980Z,97956.05
2023-03-05T05:06:36.552Z,97957.58
2023-03-05T05:09:04.202Z,97958.27
2023-03-05T05:11:31.780Z,97962.79
2023-03-05T05:13:59.293Z,97968.98
2023-03-05T05:16:27.007Z,97977.89
2023-03-05T05:18:55.177Z,97980.08
2023-03-05T05:21:22.786Z,97979.73
2023-03-05T05:23:50.340Z,97983.41
2023-03-05T05:26:17.919Z,97986.27
2023-03-05T05:28:45.628Z,97985.44
2023-03-05T05:31:16.063Z,97989.46
2023-03-05T05:33:44.091Z,97994.16
2023-03-05T05:36:14.541Z,97995.17
2023-03-05T05:38:42.587Z,97996.01
2023-03-05T05:41:13.382Z,97996.67
2023-03-05T05:43:41.137Z,97994.31
2023-03-05T05:46:12.553Z,97991.46
2023-03-05T05:48:40.357Z,97981.22
2023-03-05T05:51:13.613Z,97984.05
2023-03-05T05:53:42.411Z,97978.34
2023-03-05T05:56:12.154Z,97975.98
2023-03-05T05:58:40.974Z,97972.13
2023-03-05T06:01:19.543Z,97971.77
2023-03-05T06:03:47.727Z,97973.25
2023-03-05T06:06:18.401Z,97977.13
2023-03-05T06:08:46.372Z,97979.63
2023-03-05T06:11:14.694Z,97980.30
2023-03-05T06:13:42.623Z,97975.73
2023-03-05T06:16:16.869Z,97975.90
2023-03-05T06:18:44.554Z,97975.38
2023-03-05T06:21:14.756Z,97973.66
2023-03-05T06:23:44.230Z,97969.79
2023-03-05T06:26:14.816Z,97969.77
2023-03-05T06:28:42.890Z,97969.23
2023-03-05T06:31:19.165Z,97967.38
2023-03-05T06:33:46.701Z,97968.04
2023-03-05T06:36:17.202Z,97966.02
2023-03-05T06:38:44.817Z,97968.51
2023-03-05T06:41:15.360Z,97964.29
2023-03-05T06:43:45.574Z,97967.47
2023-03-05T06:46:19.842Z,97959.89
2023-03-05T06:48:48.421Z,97961.88
2023-03-05T06:51:26.041Z,97963.02
2023-03-05T06:53:54.935Z,97961.14
2023-03-05T06:56:22.678Z,97954.55
2023-03-05T06:58:52.969Z,97952.82
2023-03-05T07:01:21.344Z,97950.05
2023-03-05T07:03:54.653Z,97945.15
2023-03-05T07:06:22.603Z,97944.27
2023-03-05T07:08:50.150Z,97944.91
2023-03-05T07:11:20.755Z,97950.25
2023-03-05T07:13:49.227Z,97940.44
2023-03-05T07:16:23.428Z,97938.20
2023-03-05T07:18:51.771Z,97936.50
2023-03-05T07:21:25.022Z,97931.25
2023-03-05T07:23:57.623Z,97928.69
2023-03-05T07:26:26.343Z,97927.02
2023-03-05T07:28:54.569Z,97921.13
2023-03-05T07:31:24.216Z,97923.08
2023-03-05T07:33:51.805Z,97919.83
2023-03-05T07:36:19.584Z,97914.04
2023-03-05T07:38:47.398Z,97918.20
2023-03-05T07:41:17.559Z,97912.06
2023-03-05T07:43:50.039Z,97908.45
2023-03-05T07:46:20.694Z,97918.98
2023-03-05T07:48:48.457Z,97909.84
2023-03-05T07:51:19.048Z,97908.25
2023-03-05T07:53:48.807Z,97905.11
2023-03-05T07:56:25.177Z,97904.02
2023-03-05T07:58:52.983Z,97898.66
2023-03-05T08:01:20.626Z,97903.42
2023-03-05T08:03:48.361Z,97902.60
2023-03-05T08:06:16.502Z,97904.97
2023-03-05T08:08:44.319Z,97903.80
2023-03-05T08:11:14.284Z,97905.95
2023-03-05T08:13:43.573Z,97905.55
2023-03-05T08:16:17.337Z,97900.08
2023-03-05T08:18:45.543Z,97896.60
2023-03-05T08:21:21.793Z,97897.16
2023-03-05T08:23:49.417Z,97893.26
2023-03-05T08:26:21.160Z,97892.23
2023-03-05T08:28:49.731Z,97893.16
2023-03-05T08:31:19.155Z,97887.95
2023-03-05T08:33:47.893Z,97890.73
2023-03-05T08:36:15.539Z,97889.59
2023-03-05T08:38:43.106Z,97887.49
2023-03-05T08:41:11.229Z,97882.00
2023-03-05T08:43:39.296Z,97880.37
2023-03-05T08:46:07.064Z,97878.91
2023-03-05T08:48:34.714Z,97878.22
2023-03-05T08:51:07.634Z,97874.71
2023-03-05T08:53:35.309Z,97872.67
2023-03-05T08:56:02.976Z,97872.48
2023-03-05T08:58:30.894Z,97869.48
2023-03-05T09:00:58.513Z,97868.21
2023-03-05T09:03:26.218Z,97864.00
2023-03-05T09:05:53.811Z,97861.05
2023-03-05T09:08:21.448Z,97862.39
2023-03-05T09:10:48.988Z,97863.30
2023-03-05T09:13:16.701Z,97866.98
2023-03-05T09:15:44.287Z,97865.20
2023-03-05T09:18:11.828Z,97865.60
2023-03-05T09:20:39.431Z,97859.94
2023-03-05T09:23:07.045Z,97857.09
2023-03-05T09:25:34.588Z,97855.10
2023-03-05T09:28:02.147Z,97858.20
2023-03-05T09:30:29.797Z,97855.61
2023-03-05T09:32:57.375Z,97854.52
2023-03-05T09:35:25.025Z,97851.72
2023-03-05T09:37:52.708Z,97854.84
2023-03-05T09:40:21.956Z,97854.09
2023-03-05T09:42:52.184Z,97850.73
2023-03-05T09:45:22.808Z,97852.56
2023-03-05T09:48:08.370Z,97851.48
2023-03-05T09:50:47.716Z,97851.11
2023-03-05T09:53:43.078Z,97856.70
2023-03-05T09:56:14.331Z,97853.36
2023-03-05T09:58:48.388Z,97848.67
2023-03-05T10:01:15.950Z,97850.21
2023-03-05T10:03:49.778Z,97846.45
2023-03-05T10:06:31.007Z,97845.14
2023-03-05T10:09:07.348Z,97843.75
2023-03-05T10:11:56.912Z,97844.17
2023-03-05T10:14:35.630Z,97844.65
2023-03-05T10:17:10.529Z,97842.31
2023-03-05T10:19:59.673Z,97837.84
2023-03-05T10:22:41.037Z,97840.09
2023-03-05T10:25:14.699Z,97841.58
2023-03-05T10:28:04.706Z,97837.66
2023-03-05T10:30:50.279Z,97833.71
2023-03-05T10:33:25.467Z,97830.94
2023-03-05T10:36:21.005Z,97827.98
2023-03-05T10:39:12.601Z,97823.91
2023-03-05T10:41:58.873Z,97822.29
2023-03-05T10:44:46.661Z,97822.92
2023-03-05T10:47:55.365Z,97817.77
2023-03-05T10:50:31.621Z,97815.93
2023-03-05T10:53:37.664Z,97815.55
2023-03-05T10:56:06.699Z,97813.13
2023-03-05T10:58:34.339Z,97808.92
2023-03-05T11:01:06.085Z,97805.15
2023-03-05T11:03:50.634Z,97806.13
2023-03-05T11:06:45.091Z,97801.20
2023-03-05T11:09:27.570Z,97795.26
2023-03-05T11:12:04.238Z,97787.89
2023-03-05T11:14:32.466Z,97784.73
2023-03-05T11:17:23.568Z,97785.03
2023-03-05T11:19:51.156Z,97781.20
2023-03-05T11:22:22.265Z,97776.30
2023-03-05T11:25:17.437Z,97776.80
2023-03-05T11:27:51.481Z,97777.98
2023-03-05T11:30:25.903Z,97770.78
2023-03-05T11:33:16.689Z,97770.17
2023-03-05T11:35:44.561Z,97767.71
2023-03-05T11:38:16.591Z,97763.48
2023-03-05T11:40:44.496Z,97764.30
2023-03-05T11:43:18.095Z,97760.73
2023-03-05T11:45:47.287Z,97748.02
2023-03-05T11:48:26.881Z,97754.91
2023-03-05T11:50:58.162Z,97752.15
2023-03-05T11:53:28.216Z,97742.08
2023-03-05T11:56:26.735Z,97748.71
2023-03-05T11:59:14.858Z,97745.52
2023-03-05T12:01:50.052Z,97743.45
2023-03-05T12:04:19.362Z,97733.90
2023-03-05T12:06:54.518Z,97737.55
2023-03-05T12:09:42.427Z,97728.71
2023-03-05T12:12:15.807Z,97733.77
2023-03-05T12:14:51.521Z,97725.23
2023-03-05T12:17:28.602Z,97729.32
2023-03-05T12:20:22.101Z,97722.30
2023-03-05T12:22:50.634Z,97725.26
2023-03-05T12:25:44.415Z,97723.56
2023-03-05T12:28:31.706Z,97718.23
2023-03-05T12:31:01.823Z,97721.92
2023-03-05T12:33:33.689Z,97718.89
2023-03-05T12:36:19.464Z,97708.61
2023-03-05T12:38:57.447Z,97706.24
2023-03-05T12:41:27.463Z,97718.08
2023-03-05T12:44:04.878Z,97720.36
2023-03-05T12:46:34.907Z,97709.63
2023-03-05T12:49:17.835Z,97712.14
2023-03-05T12:51:47.534Z,97711.91
2023-03-05T12:54:34.670Z,97702.14
2023-03-05T12:57:12.878Z,97710.89
2023-03-05T12:59:57.429Z,97706.05
2023-03-05T13:02:38.847Z,97700.63
2023-03-05T13:05:24.741Z,97695.15
2023-03-05T13:07:52.488Z,97699.02
2023-03-05T13:10:27.704Z,97704.70
2023-03-05T13:12:57.512Z,97699.40
2023-03-05T13:15:26.446Z,97695.01
2023-03-05T13:18:02.121Z,97692.34
2023-03-05T13:20:34.410Z,97698.87
2023-03-05T13:23:07.804Z,97703.46
2023-03-05T13:25:35.375Z,97699.91
2023-03-05T13:28:17.381Z,97700.52
2023-03-05T13:30:51.492Z,97697.50
2023-03-05T13:33:25.990Z,97701.63
2023-03-05T13:35:54.223Z,97702.55
2023-03-05T13:38:46.801Z,97701.99
2023-03-05T13:41:14.805Z,97700.14
2023-03-05T13:43:54.335Z,97705.12
2023-03-05T13:46:29.316Z,97705.05
2023-03-05T13:49:15.923Z,97709.55
2023-03-05T13:51:45.705Z,97713.36
2023-03-05T13:54:17.872Z,97709.91
2023-03-05T13:56:54.384Z,97717.14
2023-03-05T13:59:23.169Z,97713.52
2023-03-05T14:01:52.466Z,97707.96
2023-03-05T14:04:23.593Z,97704.38
2023-03-05T14:07:04.141Z,97691.67
2023-03-05T14:09:37.469Z,97686.11
2023-03-05T14:12:30.053Z,97684.91
2023-03-05T14:14:59.767Z,97686.96
2023-03-05T14:17:27.375Z,97682.98
2023-03-05T14:20:13.066Z,97677.27
2023-03-05T14:22:43.560Z,97677.16
2023-03-05T14:25:32.565Z,97670.17
2023-03-05T14:28:29.104Z,97667.38
2023-03-05T14:30:57.376Z,97669.42
2023-03-05T14:33:29.733Z,97664.39
2023-03-05T14:35:59.610Z,97666.86
2023-03-05T14:38:31.908Z,97668.45
2023-03-05T14:41:29.603Z,97666.50
2023-03-05T14:43:57.192Z,97661.35
2023-03-05T14:46:24.866Z,97659.73
2023-03-05T14:48:53.437Z,97651.95
2023-03-05T14:51:21.441Z,97655.98
2023-03-05T14:53:49.369Z,97656.71
2023-03-05T14:56:23.717Z,97656.49
2023-03-05T14:58:51.436Z,97653.51
2023-03-05T15:01:19.159Z,97655.27
2023-03-05T15:03:46.790Z,97648.41
2023-03-05T15:06:35.379Z,97645.35
2023-03-05T15:09:05.347Z,97644.57
2023-03-05T15:11:33.920Z,97645.98
2023-03-05T15:14:01.703Z,97643.59
2023-03-05T15:16:32.099Z,97644.45
2023-03-05T15:18:59.796Z,97642.70
2023-03-05T15:21:27.359Z,97639.91
2023-03-05T15:23:54.923Z,97633.25
2023-03-05T15:26:22.438Z,97635.30
2023-03-05T15:28:50.125Z,97628.31
2023-03-05T15:31:17.847Z,97633.09
2023-03-05T15:33:45.439Z,97626.05
2023-03-05T15:36:13.075Z,97625.74
2023-03-05T15:38:41.019Z,97628.95
2023-03-05T15:41:08.690Z,97631.35
2023-03-05T15:43:36.999Z,97623.77
2023-03-05T15:46:06.371Z,97629.50
2023-03-05T15:48:34.079Z,97636.75
2023-03-05T15:51:01.713Z,97632.83
2023-03-05T15:53:29.519Z,97641.80
2023-03-05T15:55:57.160Z,97636.34
2023-03-05T15:58:24.781Z,97636.98
2023-03-05T16:00:55.078Z,97640.65
2023-03-05T16:03:23.188Z,97643.17
2023-03-05T16:05:50.859Z,97648.46
2023-03-05T16:08:18.463Z,97647.63
2023-03-05T16:10:46.870Z,97641.23
2023-03-05T16:13:16.411Z,97645.29
2023-03-05T16:15:44.735Z,97644.08
2023-03-05T16:18:15.803Z,97642.48
2023-03-05T16:20:43.538Z,97637.05
2023-03-05T16:23:11.086Z,97637.29
2023-03-05T16:25:40.207Z,97640.36
2023-03-05T16:28:08.201Z,97639.86
2023-03-05T16:30:36.039Z,97643.36
2023-03-05T16:33:04.203Z,97644.36
2023-03-05T16:35:32.142Z,97646.58
2023-03-05T16:37:59.857Z,97644.42
2023-03-05T16:40:44.313Z,97645.10
2023-03-05T16:43:15.124Z,97649.69
2023-03-05T16:45:42.917Z,97653.91
2023-03-05T16:48:10.561Z,97659.80
2023-03-05T16:50:39.306Z,97666.23
2023-03-05T16:53:06.999Z,97671.11
2023-03-05T16:55:43.538Z,97670.81
2023-03-05T16:58:11.097Z,97672.90
2023-03-05T17:00:39.253Z,97675.97
2023-03-05T17:03:07.004Z,97675.20
2023-03-05T17:05:38.058Z,97677.10
2023-03-05T17:08:05.847Z,97683.04
2023-03-05T17:10:33.892Z,97679.34
2023-03-05T17:13:01.562Z,97677.67
2023-03-05T17:15:31.557Z,97682.53
2023-03-05T17:17:59.208Z,97684.35
2023-03-05T17:20:27.468Z,97683.17
2023-03-05T17:22:55.077Z,97693.04
2023-03-05T17:25:22.727Z,97697.56
2023-03-05T17:27:50.360Z,97703.45
2023-03-05T17:30:18.041Z,97706.09
2023-03-05T17:32:45.681Z,97707.59
2023-03-05T17:35:18.817Z,97707.88
2023-03-05T17:37:46.480Z,97699.77
2023-03-05T17:40:14.955Z,97698.38
2023-03-05T17:42:42.727Z,97699.28
2023-03-05T17:45:11.274Z,97694.64
2023-03-05T17:47:39.230Z,97694.21
2023-03-05T17:50:08.589Z,97693.10
2023-03-05T17:52:37.300Z,97684.91
2023-03-05T17:55:06.736Z,97685.62
2023-03-05T17:57:36.476Z,97686.14
2023-03-05T18:00:05.990Z,97685.64
2023-03-05T18:02:33.645Z,97686.83
2023-03-05T18:05:03.244Z,97681.46
2023-03-05T18:07:31.920Z,97681.44
2023-03-05T18:09:59.872Z,97672.40
2023-03-05T18:12:27.457Z,97670.37
2023-03-05T18:14:55.152Z,97671.37
2023-03-05T18:17:23.075Z,97674.52
2023-03-05T18:19:51.642Z,97668.65
2023-03-05T18:22:19.479Z,97668.30
2023-03-05T18:24:47.071Z,97664.09
2023-03-05T18:27:14.949Z,97664.92
2023-03-05T18:29:42.960Z,97668.95
2023-03-05T18:32:10.774Z,97665.94
2023-03-05T18:34:38.479Z,97662.92
2023-03-05T18:37:06.038Z,97664.58
2023-03-05T18:39:33.613Z,97660.02
2023-03-05T18:42:01.212Z,97661.70
2023-03-05T18:44:28.795Z,97669.20
2023-03-05T18:46:56.430Z,97669.20
2023-03-05T18:49:24.027Z,97668.52
2023-03-05T18:51:51.721Z,97665.79
2023-03-05T18:54:19.272Z,97665.77
2023-03-05T18:56:46.876Z,97663.77
2023-03-05T18:59:14.528Z,97666.41
2023-03-05T19:01:42.621Z,97666.38
2023-03-05T19:04:10.528Z,97666.02
2023-03-05T19:06:38.134Z,97663.51
2023-03-05T19:09:05.962Z,97664.86
2023-03-05T19:11:33.511Z,97666.06
2023-03-05T19:14:01.528Z,97667.09
2023-03-05T19:16:30.362Z,97668.13
2023-03-05T19:19:04.795Z,97667.30
2023-03-05T19:21:32.506Z,97669.98
2023-03-05T19:24:00.154Z,97671.86
2023-03-05T19:26:27.842Z,97673.73
2023-03-05T19:28:55.346Z,97672.23
2023-03-05T19:31:23.653Z,97671.05
2023-03-05T19:33:51.189Z,97670.11
2023-03-05T19:36:18.745Z,97668.63
2023-03-05T19:38:48.606Z,97664.95
2023-03-05T19:41:17.164Z,97664.32
2023-03-05T19:43:44.815Z,97660.30
2023-03-05T19:46:12.888Z,97658.99
2023-03-05T19:48:40.447Z,97662.55
2023-03-05T19:51:13.343Z,97661.42
2023-03-05T19:53:42.116Z,97660.94
2023-03-05T19:56:10.404Z,97666.33
2023-03-05T19:58:38.283Z,97663.30
2023-03-05T20:01:16.106Z,97665.33
2023-03-05T20:03:45.425Z,97663.48
2023-03-05T20:06:14.080Z,97659.00
2023-03-05T20:08:41.695Z,97658.50
2023-03-05T20:11:14.240Z,97663.23
2023-03-05T20:13:42.297Z,97664.91
2023-03-05T20:16:20.685Z,97658.89
2023-03-05T20:18:49.047Z,97661.27
2023-03-05T20:21:16.689Z,97657.62
2023-03-05T20:23:44.650Z,97650.30
2023-03-05T20:26:14.643Z,97653.16
2023-03-05T20:28:43.022Z,97651.19
2023-03-05T20:31:11.125Z,97647.02
2023-03-05T20:33:39.159Z,97643.66
2023-03-05T20:36:07.100Z,97641.83
2023-03-05T20:38:34.598Z,97640.31
2023-03-05T20:41:05.669Z,97640.98
2023-03-05T20:43:36.495Z,97635.61
2023-03-05T20:46:04.837Z,97627.55
2023-03-05T20:48:33.907Z,97624.17
2023-03-05T20:51:25.198Z,97627.17
2023-03-05T20:53:55.889Z,97628.83
2023-03-05T20:56:25.977Z,97632.86
2023-03-05T20:58:56.610Z,97629.33
2023-03-05T21:01:25.247Z,97629.00
2023-03-05T21:03:53.143Z,97624.64
2023-03-05T21:06:20.724Z,97619.11
2023-03-05T21:08:48.363Z,97616.42
2023-03-05T21:11:16.133Z,97614.58
2023-03-05T21:13:44.449Z,97611.73
2023-03-05T21:16:16.689Z,97612.05
2023-03-05T21:18:44.581Z,97611.21
2023-03-05T21:21:12.500Z,97608.54
2023-03-05T21:23:40.085Z,97601.00
2023-03-05T21:26:07.694Z,97599.65
2023-03-05T21:28:35.420Z,97595.11
2023-03-05T21:31:14.967Z,97591.11
2023-03-05T21:33:42.695Z,97594.30
2023-03-05T21:36:10.497Z,97597.31
2023-03-05T21:38:38.067Z,97596.48
2023-03-05T21:41:05.954Z,97602.17
2023-03-05T21:43:34.038Z,97604.19
2023-03-05T21:46:02.764Z,97592.45
2023-03-05T21:48:30.903Z,97592.27
2023-03-05T21:50:58.758Z,97591.08
2023-03-05T21:53:26.482Z,97588.23
2023-03-05T21:55:55.412Z,97587.39
2023-03-05T21:58:23.024Z,97585.39
2023-03-05T22:00:50.634Z,97586.92
2023-03-05T22:03:18.432Z,97590.11
2023-03-05T22:05:46.111Z,97587.93
2023-03-05T22:08:13.879Z,97584.08
2023-03-05T22:10:41.677Z,97576.35
2023-03-05T22:13:09.993Z,97576.02
2023-03-05T22:15:55.011Z,97578.35
2023-03-05T22:18:28.523Z,97578.33
2023-03-05T22:20:57.453Z,97576.02
2023-03-05T22:23:27.390Z,97578.71
2023-03-05T22:25:59.410Z,97573.70
2023-03-05T22:28:28.070Z,97575.06
2023-03-05T22:30:56.352Z,97578.95
2023-03-05T22:33:24.352Z,97573.77
2023-03-05T22:35:51.967Z,97567.43
2023-03-05T22:38:20.033Z,97562.77
2023-03-05T22:40:49.248Z,97558.56
2023-03-05T22:43:18.801Z,97553.40
2023-03-05T22:45:46.542Z,97559.45
2023-03-05T22:48:14.114Z,97564.66
2023-03-05T22:50:43.138Z,97559.65
2023-03-05T22:53:11.206Z,97560.98
2023-03-05T22:55:42.633Z,97562.16
2023-03-05T22:58:10.285Z,97562.99
2023-03-05T23:00:37.852Z,97564.17
2023-03-05T23:03:05.513Z,97566.18
2023-03-05T23:05:34.207Z,97569.37
2023-03-05T23:08:02.037Z,97568.52
2023-03-05T23:10:29.721Z,97568.17
2023-03-05T23:12:58.777Z,97570.69
2023-03-05T23:15:29.180Z,97568.17
2023-03-05T23:17:57.022Z,97567.52
2023-03-05T23:20:27.443Z,97564.54
2023-03-05T23:22:55.475Z,97563.55
2023-03-05T23:25:25.417Z,97559.88
2023-03-05T23:27:54.087Z,97557.04
2023-03-05T23:30:23.306Z,97561.08
2023-03-05T23:33:02.136Z,97556.55
2023-03-05T23:35:33.324Z,97554.04
2023-03-05T23:38:02.336Z,97552.73
2023-03-05T23:40:39.921Z,97551.25
2023-03-05T23:43:07.945Z,97550.25
2023-03-05T23:45:35.476Z,97552.78
2023-03-05T23:48:03.303Z,97554.48
2023-03-05T23:50:34.139Z,97554.67
2023-03-05T23:53:02.793Z,97553.19
2023-03-05T23:55:37.197Z,97554.04
2023-03-05T23:58:04.747Z,97556.42
